sensor_id;sensor_type;location;lat;lon;timestamp;pressure;altitude;pressure_sealevel;temperature;humidity
69058;BME280;56128;37.534;-122.308;2024-03-02T00:00:22;100759.09;;;12.39;100.00
69058;BME280;56128;37.534;-122.308;2024-03-02T00:02:51;100762.16;;;12.34;100.00
69058;BME280;56128;37.534;-122.308;2024-03-02T00:05:18;100770.44;;;12.43;100.00
69058;BME280;56128;37.534;-122.308;2024-03-02T00:07:47;100752.75;;;12.40;100.00
69058;BME280;56128;37.534;-122.308;2024-03-02T00:10:20;100764.97;;;12.33;100.00
69058;BME280;56128;37.534;-122.308;2024-03-02T00:12:51;100753.06;;;12.26;100.00
69058;BME280;56128;37.534;-122.308;2024-03-02T00:17:55;100744.31;;;12.24;100.00
69058;BME280;56128;37.534;-122.308;2024-03-02T00:20:22;100735.94;;;12.38;100.00
69058;BME280;56128;37.534;-122.308;2024-03-02T00:22:50;100758.19;;;12.29;100.00
69058;BME280;56128;37.534;-122.308;2024-03-02T00:25:16;100735.75;;;12.30;100.00
69058;BME280;56128;37.534;-122.308;2024-03-02T00:27:47;100723.44;;;12.27;100.00
69058;BME280;56128;37.534;-122.308;2024-03-02T00:30:54;100723.53;;;12.26;100.00
69058;BME280;56128;37.534;-122.308;2024-03-02T00:33:22;100738.66;;;12.27;100.00
69058;BME280;56128;37.534;-122.308;2024-03-02T00:35:49;100737.81;;;12.26;100.00
69058;BME280;56128;37.534;-122.308;2024-03-02T00:38:15;100758.94;;;12.20;100.00
69058;BME280;56128;37.534;-122.308;2024-03-02T00:40:43;100744.69;;;12.19;100.00
69058;BME280;56128;37.534;-122.308;2024-03-02T00:43:43;100727.28;;;12.02;100.00
69058;BME280;56128;37.534;-122.308;2024-03-02T00:46:17;100732.66;;;11.91;100.00
69058;BME280;56128;37.534;-122.308;2024-03-02T00:48:54;100746.09;;;11.79;100.00
69058;BME280;56128;37.534;-122.308;2024-03-02T00:51:31;100728.44;;;11.77;100.00
69058;BME280;56128;37.534;-122.308;2024-03-02T00:54:03;100732.13;;;11.64;100.00
69058;BME280;56128;37.534;-122.308;2024-03-02T00:56:30;100738.47;;;11.63;100.00
69058;BME280;56128;37.534;-122.308;2024-03-02T00:58:56;100749.91;;;11.65;100.00
69058;BME280;56128;37.534;-122.308;2024-03-02T01:01:23;100739.44;;;11.62;100.00
69058;BME280;56128;37.534;-122.308;2024-03-02T01:03:50;100746.53;;;11.63;100.00
69058;BME280;56128;37.534;-122.308;2024-03-02T01:06:16;100728.22;;;11.68;100.00
69058;BME280;56128;37.534;-122.308;2024-03-02T01:08:43;100734.53;;;11.79;100.00
69058;BME280;56128;37.534;-122.308;2024-03-02T01:11:09;100736.38;;;11.78;100.00
69058;BME280;56128;37.534;-122.308;2024-03-02T01:13:35;100732.34;;;11.73;100.00
69058;BME280;56128;37.534;-122.308;2024-03-02T01:16:02;100721.50;;;11.74;100.00
69058;BME280;56128;37.534;-122.308;2024-03-02T01:18:29;100721.88;;;11.81;100.00
69058;BME280;56128;37.534;-122.308;2024-03-02T01:20:56;100715.78;;;11.79;100.00
69058;BME280;56128;37.534;-122.308;2024-03-02T01:23:23;100739.06;;;11.78;100.00
69058;BME280;56128;37.534;-122.308;2024-03-02T01:25:51;100749.78;;;11.78;100.00
69058;BME280;56128;37.534;-122.308;2024-03-02T01:28:18;100735.66;;;11.76;100.00
69058;BME280;56128;37.534;-122.308;2024-03-02T01:30:45;100732.63;;;11.69;100.00
69058;BME280;56128;37.534;-122.308;2024-03-02T01:33:11;100728.94;;;11.70;100.00
69058;BME280;56128;37.534;-122.308;2024-03-02T01:35:37;100741.00;;;11.76;100.00
69058;BME280;56128;37.534;-122.308;2024-03-02T01:38:04;100747.22;;;11.77;100.00
69058;BME280;56128;37.534;-122.308;2024-03-02T01:40:37;100726.16;;;11.72;100.00
69058;BME280;56128;37.534;-122.308;2024-03-02T01:43:07;100731.00;;;11.67;100.00
69058;BME280;56128;37.534;-122.308;2024-03-02T01:45:34;100701.53;;;11.67;100.00
69058;BME280;56128;37.534;-122.308;2024-03-02T01:48:01;100725.41;;;11.70;100.00
69058;BME280;56128;37.534;-122.308;2024-03-02T01:50:30;100701.28;;;11.70;100.00
69058;BME280;56128;37.534;-122.308;2024-03-02T01:52:57;100700.81;;;11.65;100.00
69058;BME280;56128;37.534;-122.308;2024-03-02T01:55:24;100709.84;;;11.64;100.00
69058;BME280;56128;37.534;-122.308;2024-03-02T01:57:50;100696.56;;;11.62;100.00
69058;BME280;56128;37.534;-122.308;2024-03-02T02:00:18;100701.94;;;11.62;100.00
69058;BME280;56128;37.534;-122.308;2024-03-02T02:02:46;100705.81;;;11.58;100.00
69058;BME280;56128;37.534;-122.308;2024-03-02T02:05:12;100693.53;;;11.56;100.00
69058;BME280;56128;37.534;-122.308;2024-03-02T02:07:43;100682.31;;;11.50;100.00
69058;BME280;56128;37.534;-122.308;2024-03-02T02:10:10;100708.53;;;11.47;100.00
69058;BME280;56128;37.534;-122.308;2024-03-02T02:12:37;100685.28;;;11.47;100.00
69058;BME280;56128;37.534;-122.308;2024-03-02T02:15:04;100700.38;;;11.48;100.00
69058;BME280;56128;37.534;-122.308;2024-03-02T02:17:47;100697.69;;;11.48;100.00
69058;BME280;56128;37.534;-122.308;2024-03-02T02:20:13;100688.94;;;11.46;100.00
69058;BME280;56128;37.534;-122.308;2024-03-02T02:22:39;100676.63;;;11.44;100.00
69058;BME280;56128;37.534;-122.308;2024-03-02T02:25:06;100679.78;;;11.49;100.00
69058;BME280;56128;37.534;-122.308;2024-03-02T02:27:32;100704.38;;;11.54;100.00
69058;BME280;56128;37.534;-122.308;2024-03-02T02:29:58;100683.81;;;11.55;100.00
69058;BME280;56128;37.534;-122.308;2024-03-02T02:32:26;100703.28;;;11.57;100.00
69058;BME280;56128;37.534;-122.308;2024-03-02T02:34:53;100686.44;;;11.66;100.00
69058;BME280;56128;37.534;-122.308;2024-03-02T02:37:19;100669.03;;;11.60;100.00
69058;BME280;56128;37.534;-122.308;2024-03-02T02:39:45;100673.78;;;11.57;100.00
69058;BME280;56128;37.534;-122.308;2024-03-02T02:42:12;100681.72;;;11.47;100.00
69058;BME280;56128;37.534;-122.308;2024-03-02T02:44:38;100681.16;;;11.43;100.00
69058;BME280;56128;37.534;-122.308;2024-03-02T02:47:04;100681.38;;;11.40;100.00
69058;BME280;56128;37.534;-122.308;2024-03-02T02:49:31;100679.44;;;11.42;100.00
69058;BME280;56128;37.534;-122.308;2024-03-02T02:51:57;100693.47;;;11.34;100.00
69058;BME280;56128;37.534;-122.308;2024-03-02T02:54:24;100691.38;;;11.27;100.00
69058;BME280;56128;37.534;-122.308;2024-03-02T02:56:50;100694.53;;;11.20;100.00
69058;BME280;56128;37.534;-122.308;2024-03-02T02:59:16;100692.47;;;11.13;100.00
69058;BME280;56128;37.534;-122.308;2024-03-02T03:01:42;100689.19;;;11.09;100.00
69058;BME280;56128;37.534;-122.308;2024-03-02T03:04:08;100692.47;;;11.13;100.00
69058;BME280;56128;37.534;-122.308;2024-03-02T03:06:34;100686.50;;;11.20;100.00
69058;BME280;56128;37.534;-122.308;2024-03-02T03:09:01;100688.69;;;11.27;100.00
69058;BME280;56128;37.534;-122.308;2024-03-02T03:11:28;100689.44;;;11.29;100.00
69058;BME280;56128;37.534;-122.308;2024-03-02T03:13:54;100697.59;;;11.27;100.00
69058;BME280;56128;37.534;-122.308;2024-03-02T03:16:20;100685.06;;;11.28;100.00
69058;BME280;56128;37.534;-122.308;2024-03-02T03:18:46;100687.03;;;11.26;100.00
69058;BME280;56128;37.534;-122.308;2024-03-02T03:21:13;100689.41;;;11.40;100.00
69058;BME280;56128;37.534;-122.308;2024-03-02T03:23:39;100704.78;;;11.49;100.00
69058;BME280;56128;37.534;-122.308;2024-03-02T03:26:05;100695.50;;;11.42;100.00
69058;BME280;56128;37.534;-122.308;2024-03-02T03:28:31;100689.41;;;11.40;100.00
69058;BME280;56128;37.534;-122.308;2024-03-02T03:30:57;100703.13;;;11.58;100.00
69058;BME280;56128;37.534;-122.308;2024-03-02T03:33:23;100689.72;;;11.58;100.00
69058;BME280;56128;37.534;-122.308;2024-03-02T03:35:49;100703.53;;;11.53;100.00
69058;BME280;56128;37.534;-122.308;2024-03-02T03:38:16;100691.09;;;11.52;100.00
69058;BME280;56128;37.534;-122.308;2024-03-02T03:40:42;100676.72;;;11.53;100.00
69058;BME280;56128;37.534;-122.308;2024-03-02T03:43:09;100682.22;;;11.52;100.00
69058;BME280;56128;37.534;-122.308;2024-03-02T03:45:35;100679.38;;;11.65;100.00
69058;BME280;56128;37.534;-122.308;2024-03-02T03:48:02;100692.25;;;11.82;100.00
69058;BME280;56128;37.534;-122.308;2024-03-02T03:50:28;100664.84;;;11.79;100.00
69058;BME280;56128;37.534;-122.308;2024-03-02T03:52:55;100678.63;;;11.74;100.00
69058;BME280;56128;37.534;-122.308;2024-03-02T03:55:21;100665.72;;;11.68;100.00
69058;BME280;56128;37.534;-122.308;2024-03-02T03:57:47;100668.16;;;11.71;100.00
69058;BME280;56128;37.534;-122.308;2024-03-02T04:00:14;100643.56;;;11.66;100.00
69058;BME280;56128;37.534;-122.308;2024-03-02T04:02:40;100642.84;;;11.64;100.00
69058;BME280;56128;37.534;-122.308;2024-03-02T04:05:06;100648.56;;;11.59;100.00
69058;BME280;56128;37.534;-122.308;2024-03-02T04:07:39;100611.91;;;11.60;100.00
69058;BME280;56128;37.534;-122.308;2024-03-02T04:10:09;100609.69;;;11.65;100.00
69058;BME280;56128;37.534;-122.308;2024-03-02T04:12:36;100620.41;;;11.65;100.00
69058;BME280;56128;37.534;-122.308;2024-03-02T04:15:04;100601.19;;;11.60;100.00
69058;BME280;56128;37.534;-122.308;2024-03-02T04:17:32;100628.13;;;11.47;100.00
69058;BME280;56128;37.534;-122.308;2024-03-02T04:19:59;100629.75;;;11.38;100.00
69058;BME280;56128;37.534;-122.308;2024-03-02T04:22:27;100644.38;;;11.34;100.00
69058;BME280;56128;37.534;-122.308;2024-03-02T04:24:53;100655.59;;;11.28;100.00
69058;BME280;56128;37.534;-122.308;2024-03-02T04:27:20;100653.31;;;11.23;100.00
69058;BME280;56128;37.534;-122.308;2024-03-02T04:29:46;100640.50;;;11.15;100.00
69058;BME280;56128;37.534;-122.308;2024-03-02T04:32:12;100640.63;;;11.14;100.00
69058;BME280;56128;37.534;-122.308;2024-03-02T04:34:38;100648.06;;;11.10;100.00
69058;BME280;56128;37.534;-122.308;2024-03-02T04:37:04;100657.31;;;11.06;100.00
69058;BME280;56128;37.534;-122.308;2024-03-02T04:39:31;100638.09;;;11.01;100.00
69058;BME280;56128;37.534;-122.308;2024-03-02T04:41:57;100641.00;;;10.98;100.00
69058;BME280;56128;37.534;-122.308;2024-03-02T04:44:24;100642.84;;;10.97;100.00
69058;BME280;56128;37.534;-122.308;2024-03-02T04:46:50;100637.63;;;10.96;100.00
69058;BME280;56128;37.534;-122.308;2024-03-02T04:49:16;100629.81;;;10.93;100.00
69058;BME280;56128;37.534;-122.308;2024-03-02T04:51:42;100632.63;;;10.91;100.00
69058;BME280;56128;37.534;-122.308;2024-03-02T04:54:08;100649.78;;;10.88;100.00
69058;BME280;56128;37.534;-122.308;2024-03-02T04:56:34;100637.16;;;10.91;100.00
69058;BME280;56128;37.534;-122.308;2024-03-02T04:59:11;100628.97;;;10.92;100.00
69058;BME280;56128;37.534;-122.308;2024-03-02T05:01:37;100637.63;;;10.96;100.00
69058;BME280;56128;37.534;-122.308;2024-03-02T05:04:03;100637.16;;;10.91;100.00
69058;BME280;56128;37.534;-122.308;2024-03-02T05:06:29;100649.53;;;10.92;100.00
69058;BME280;56128;37.534;-122.308;2024-03-02T05:08:56;100669.13;;;10.92;100.00
69058;BME280;56128;37.534;-122.308;2024-03-02T05:11:22;100664.63;;;10.81;100.00
69058;BME280;56128;37.534;-122.308;2024-03-02T05:14:17;100695.75;;;10.60;100.00
69058;BME280;56128;37.534;-122.308;2024-03-02T05:16:43;100689.63;;;10.46;100.00
69058;BME280;56128;37.534;-122.308;2024-03-02T05:19:09;100697.34;;;10.27;100.00
69058;BME280;56128;37.534;-122.308;2024-03-02T05:21:35;100695.59;;;10.14;100.00
69058;BME280;56128;37.534;-122.308;2024-03-02T05:24:01;100679.03;;;9.98;100.00
69058;BME280;56128;37.534;-122.308;2024-03-02T05:26:28;100661.28;;;9.97;100.00
69058;BME280;56128;37.534;-122.308;2024-03-02T05:28:54;100654.09;;;9.97;100.00
69058;BME280;56128;37.534;-122.308;2024-03-02T05:31:20;100626.53;;;9.97;100.00
69058;BME280;56128;37.534;-122.308;2024-03-02T05:33:46;100641.69;;;9.96;100.00
69058;BME280;56128;37.534;-122.308;2024-03-02T05:36:12;100638.41;;;9.93;100.00
69058;BME280;56128;37.534;-122.308;2024-03-02T05:38:38;100700.16;;;10.01;100.00
69058;BME280;56128;37.534;-122.308;2024-03-02T05:41:04;100727.59;;;9.91;100.00
69058;BME280;56128;37.534;-122.308;2024-03-02T05:43:31;100732.88;;;9.80;100.00
69058;BME280;56128;37.534;-122.308;2024-03-02T05:45:57;100722.00;;;9.70;100.00
69058;BME280;56128;37.534;-122.308;2024-03-02T05:48:23;100704.06;;;9.59;100.00
69058;BME280;56128;37.534;-122.308;2024-03-02T05:50:49;100686.56;;;9.55;100.00
69058;BME280;56128;37.534;-122.308;2024-03-02T05:53:15;100682.44;;;9.51;100.00
69058;BME280;56128;37.534;-122.308;2024-03-02T05:55:41;100686.19;;;9.49;100.00
69058;BME280;56128;37.534;-122.308;2024-03-02T05:58:07;100684.34;;;9.49;100.00
69058;BME280;56128;37.534;-122.308;2024-03-02T06:00:52;100713.50;;;9.52;100.00
69058;BME280;56128;37.534;-122.308;2024-03-02T06:03:20;100700.69;;;9.57;100.00
69058;BME280;56128;37.534;-122.308;2024-03-02T06:05:46;100688.91;;;9.60;100.00
69058;BME280;56128;37.534;-122.308;2024-03-02T06:08:15;100697.03;;;9.58;100.00
69058;BME280;56128;37.534;-122.308;2024-03-02T06:10:41;100695.09;;;9.61;100.00
69058;BME280;56128;37.534;-122.308;2024-03-02T06:13:07;100674.69;;;9.59;100.00
69058;BME280;56128;37.534;-122.308;2024-03-02T06:15:33;100683.34;;;9.63;100.00
69058;BME280;56128;37.534;-122.308;2024-03-02T06:18:01;100684.28;;;9.62;100.00
69058;BME280;56128;37.534;-122.308;2024-03-02T06:20:27;100674.25;;;9.66;100.00
69058;BME280;56128;37.534;-122.308;2024-03-02T06:22:56;100690.38;;;9.64;100.00
69058;BME280;56128;37.534;-122.308;2024-03-02T06:25:22;100691.22;;;9.65;100.00
69058;BME280;56128;37.534;-122.308;2024-03-02T06:27:48;100694.66;;;9.67;100.00
69058;BME280;56128;37.534;-122.308;2024-03-02T06:30:14;100682.03;;;9.69;100.00
69058;BME280;56128;37.534;-122.308;2024-03-02T06:32:41;100691.75;;;9.70;100.00
69058;BME280;56128;37.534;-122.308;2024-03-02T06:35:07;100669.06;;;9.75;100.00
69058;BME280;56128;37.534;-122.308;2024-03-02T06:37:53;100683.06;;;9.79;100.00
69058;BME280;56128;37.534;-122.308;2024-03-02T06:40:19;100676.75;;;9.80;100.00
69058;BME280;56128;37.534;-122.308;2024-03-02T06:42:46;100676.28;;;9.86;100.00
69058;BME280;56128;37.534;-122.308;2024-03-02T06:45:13;100672.63;;;9.87;100.00
69058;BME280;56128;37.534;-122.308;2024-03-02T06:47:39;100686.63;;;9.91;100.00
69058;BME280;56128;37.534;-122.308;2024-03-02T06:50:05;100681.91;;;9.95;100.00
69058;BME280;56128;37.534;-122.308;2024-03-02T06:52:32;100678.50;;;9.93;100.00
69058;BME280;56128;37.534;-122.308;2024-03-02T06:54:58;100683.75;;;9.94;100.00
69058;BME280;56128;37.534;-122.308;2024-03-02T06:57:25;100680.19;;;9.94;100.00
69058;BME280;56128;37.534;-122.308;2024-03-02T06:59:51;100681.19;;;9.93;100.00
69058;BME280;56128;37.534;-122.308;2024-03-02T07:02:19;100690.25;;;9.90;100.00
69058;BME280;56128;37.534;-122.308;2024-03-02T07:04:46;100692.59;;;9.95;100.00
69058;BME280;56128;37.534;-122.308;2024-03-02T07:07:12;100706.09;;;9.93;100.00
69058;BME280;56128;37.534;-122.308;2024-03-02T07:09:38;100689.22;;;9.93;100.00
69058;BME280;56128;37.534;-122.308;2024-03-02T07:12:05;100697.09;;;9.94;100.00
69058;BME280;56128;37.534;-122.308;2024-03-02T07:14:31;100698.91;;;9.94;100.00
69058;BME280;56128;37.534;-122.308;2024-03-02T07:17:16;100688.34;;;9.92;100.00
69058;BME280;56128;37.534;-122.308;2024-03-02T07:19:42;100696.69;;;9.87;100.00
69058;BME280;56128;37.534;-122.308;2024-03-02T07:22:08;100696.69;;;9.87;100.00
69058;BME280;56128;37.534;-122.308;2024-03-02T07:24:41;100711.25;;;9.83;100.00
69058;BME280;56128;37.534;-122.308;2024-03-02T07:27:09;100700.81;;;9.80;100.00
69058;BME280;56128;37.534;-122.308;2024-03-02T07:29:35;100690.06;;;9.69;100.00
69058;BME280;56128;37.534;-122.308;2024-03-02T07:32:02;100694.66;;;9.67;100.00
69058;BME280;56128;37.534;-122.308;2024-03-02T07:34:28;100688.03;;;9.59;100.00
69058;BME280;56128;37.534;-122.308;2024-03-02T07:36:54;100678.78;;;9.52;100.00
69058;BME280;56128;37.534;-122.308;2024-03-02T07:39:21;100671.97;;;9.48;100.00
69058;BME280;56128;37.534;-122.308;2024-03-02T07:41:47;100672.81;;;9.49;100.00
69058;BME280;56128;37.534;-122.308;2024-03-02T07:44:14;100678.25;;;9.47;100.00
69058;BME280;56128;37.534;-122.308;2024-03-02T07:46:44;100676.47;;;9.48;100.00
69058;BME280;56128;37.534;-122.308;2024-03-02T07:49:10;100667.56;;;9.47;100.00
69058;BME280;56128;37.534;-122.308;2024-03-02T07:51:36;100666.41;;;9.51;100.00
69058;BME280;56128;37.534;-122.308;2024-03-02T07:54:22;100650.59;;;9.48;100.00
69058;BME280;56128;37.534;-122.308;2024-03-02T07:56:48;100652.06;;;9.52;100.00
69058;BME280;56128;37.534;-122.308;2024-03-02T07:59:15;100655.47;;;9.54;100.00
69058;BME280;56128;37.534;-122.308;2024-03-02T08:01:41;100643.72;;;9.57;100.00
69058;BME280;56128;37.534;-122.308;2024-03-02T08:04:07;100661.34;;;9.59;100.00
69058;BME280;56128;37.534;-122.308;2024-03-02T08:06:34;100718.97;;;9.51;100.00
69058;BME280;56128;37.534;-122.308;2024-03-02T08:09:01;100712.50;;;9.29;100.00
69058;BME280;56128;37.534;-122.308;2024-03-02T08:11:27;100708.03;;;9.17;100.00
69058;BME280;56128;37.534;-122.308;2024-03-02T08:13:54;100691.09;;;9.05;100.00
69058;BME280;56128;37.534;-122.308;2024-03-02T08:16:22;100676.22;;;9.01;100.00
69058;BME280;56128;37.534;-122.308;2024-03-02T08:18:52;100692.47;;;8.98;100.00
69058;BME280;56128;37.534;-122.308;2024-03-02T08:21:18;100691.94;;;9.05;100.00
69058;BME280;56128;37.534;-122.308;2024-03-02T08:23:45;100681.56;;;9.01;100.00
69058;BME280;56128;37.534;-122.308;2024-03-02T08:26:11;100686.91;;;9.01;100.00
69058;BME280;56128;37.534;-122.308;2024-03-02T08:28:37;100686.72;;;9.04;100.00
69058;BME280;56128;37.534;-122.308;2024-03-02T08:31:06;100680.72;;;9.00;100.00
69058;BME280;56128;37.534;-122.308;2024-03-02T08:33:33;100675.94;;;8.92;100.00
69058;BME280;56128;37.534;-122.308;2024-03-02T08:36:00;100684.25;;;8.88;100.00
69058;BME280;56128;37.534;-122.308;2024-03-02T08:38:26;100682.66;;;8.85;100.00
69058;BME280;56128;37.534;-122.308;2024-03-02T08:40:53;100694.28;;;8.84;100.00
69058;BME280;56128;37.534;-122.308;2024-03-02T08:43:19;100698.69;;;8.85;100.00
69058;BME280;56128;37.534;-122.308;2024-03-02T08:45:46;100704.25;;;8.82;100.00
69058;BME280;56128;37.534;-122.308;2024-03-02T08:48:12;100710.19;;;8.86;100.00
69058;BME280;56128;37.534;-122.308;2024-03-02T08:50:39;100705.72;;;8.86;100.00
69058;BME280;56128;37.534;-122.308;2024-03-02T08:53:05;100708.28;;;8.88;100.00
69058;BME280;56128;37.534;-122.308;2024-03-02T08:55:31;100699.53;;;8.86;100.00
69058;BME280;56128;37.534;-122.308;2024-03-02T08:57:57;100712.66;;;8.89;100.00
69058;BME280;56128;37.534;-122.308;2024-03-02T09:00:24;100705.28;;;8.92;100.00
69058;BME280;56128;37.534;-122.308;2024-03-02T09:02:50;100710.84;;;8.89;100.00
69058;BME280;56128;37.534;-122.308;2024-03-02T09:05:16;100696.84;;;8.86;100.00
69058;BME280;56128;37.534;-122.308;2024-03-02T09:07:43;100718.19;;;8.86;100.00
69058;BME280;56128;37.534;-122.308;2024-03-02T09:10:09;100709.25;;;8.87;100.00
69058;BME280;56128;37.534;-122.308;2024-03-02T09:12:36;100715.22;;;8.90;100.00
69058;BME280;56128;37.534;-122.308;2024-03-02T09:15:03;100725.13;;;8.88;100.00
69058;BME280;56128;37.534;-122.308;2024-03-02T09:17:30;100736.56;;;8.90;100.00
69058;BME280;56128;37.534;-122.308;2024-03-02T09:19:56;100758.03;;;8.89;100.00
69058;BME280;56128;37.534;-122.308;2024-03-02T09:22:22;100758.44;;;8.70;100.00
69058;BME280;56128;37.534;-122.308;2024-03-02T09:24:48;100740.19;;;8.64;100.00
69058;BME280;56128;37.534;-122.308;2024-03-02T09:27:15;100751.28;;;8.57;100.00
69058;BME280;56128;37.534;-122.308;2024-03-02T09:29:41;100750.75;;;8.52;100.00
69058;BME280;56128;37.534;-122.308;2024-03-02T09:32:08;100762.56;;;8.48;100.00
69058;BME280;56128;37.534;-122.308;2024-03-02T09:34:34;100760.19;;;8.43;100.00
69058;BME280;56128;37.534;-122.308;2024-03-02T09:37:00;100752.91;;;8.33;100.00
69058;BME280;56128;37.534;-122.308;2024-03-02T09:39:26;100752.59;;;8.37;100.00
69058;BME280;56128;37.534;-122.308;2024-03-02T09:41:53;100751.94;;;8.34;100.00
69058;BME280;56128;37.534;-122.308;2024-03-02T09:44:20;100754.81;;;8.31;100.00
69058;BME280;56128;37.534;-122.308;2024-03-02T09:46:49;100751.59;;;8.25;100.00
69058;BME280;56128;37.534;-122.308;2024-03-02T09:49:15;100752.25;;;8.29;100.00
69058;BME280;56128;37.534;-122.308;2024-03-02T09:51:47;100750.44;;;8.29;100.00
69058;BME280;56128;37.534;-122.308;2024-03-02T09:54:15;100748.63;;;8.30;100.00
69058;BME280;56128;37.534;-122.308;2024-03-02T09:56:41;100752.25;;;8.29;100.00
69058;BME280;56128;37.534;-122.308;2024-03-02T09:59:08;100740.84;;;8.27;100.00
69058;BME280;56128;37.534;-122.308;2024-03-02T10:01:34;100741.38;;;8.32;100.00
69058;BME280;56128;37.534;-122.308;2024-03-02T10:04:01;100750.34;;;8.31;100.00
69058;BME280;56128;37.534;-122.308;2024-03-02T10:06:28;100751.94;;;8.34;100.00
69058;BME280;56128;37.534;-122.308;2024-03-02T10:08:55;100760.13;;;8.31;100.00
69058;BME280;56128;37.534;-122.308;2024-03-02T10:11:31;100769.97;;;8.30;100.00
69058;BME280;56128;37.534;-122.308;2024-03-02T10:14:24;100766.34;;;8.31;100.00
69058;BME280;56128;37.534;-122.308;2024-03-02T10:16:50;100767.50;;;8.27;100.00
69058;BME280;56128;37.534;-122.308;2024-03-02T10:19:21;100762.59;;;8.21;100.00
69058;BME280;56128;37.534;-122.308;2024-03-02T10:21:51;100754.66;;;8.19;100.00
69058;BME280;56128;37.534;-122.308;2024-03-02T10:24:22;100755.72;;;8.17;100.00
69058;BME280;56128;37.534;-122.308;2024-03-02T10:26:48;100752.41;;;8.13;100.00
69058;BME280;56128;37.534;-122.308;2024-03-02T10:29:15;100762.34;;;8.11;100.00
69058;BME280;56128;37.534;-122.308;2024-03-02T10:31:43;100757.94;;;8.10;100.00
69058;BME280;56128;37.534;-122.308;2024-03-02T10:34:10;100762.13;;;8.14;100.00
69058;BME280;56128;37.534;-122.308;2024-03-02T10:36:38;100761.47;;;8.10;100.00
69058;BME280;56128;37.534;-122.308;2024-03-02T10:39:07;100765.72;;;8.13;100.00
69058;BME280;56128;37.534;-122.308;2024-03-02T10:41:35;100752.50;;;8.11;100.00
69058;BME280;56128;37.534;-122.308;2024-03-02T10:44:03;100763.81;;;8.15;100.00
69058;BME280;56128;37.534;-122.308;2024-03-02T10:46:31;100753.16;;;8.15;100.00
69058;BME280;56128;37.534;-122.308;2024-03-02T10:48:59;100758.31;;;8.18;100.00
69058;BME280;56128;37.534;-122.308;2024-03-02T10:51:30;100756.59;;;8.17;100.00
69058;BME280;56128;37.534;-122.308;2024-03-02T10:54:00;100762.75;;;8.18;100.00
69058;BME280;56128;37.534;-122.308;2024-03-02T10:56:43;100760.41;;;8.13;100.00
69058;BME280;56128;37.534;-122.308;2024-03-02T11:01:39;100765.84;;;8.11;100.00
69058;BME280;56128;37.534;-122.308;2024-03-02T11:04:08;100755.28;;;8.10;100.00
69058;BME280;56128;37.534;-122.308;2024-03-02T11:06:36;100757.00;;;8.11;100.00
69058;BME280;56128;37.534;-122.308;2024-03-02T11:09:07;100752.41;;;8.13;100.00
69058;BME280;56128;37.534;-122.308;2024-03-02T11:11:37;100762.34;;;8.11;100.00
69058;BME280;56128;37.534;-122.308;2024-03-02T11:14:07;100759.78;;;8.09;100.00
69058;BME280;56128;37.534;-122.308;2024-03-02T11:16:38;100760.63;;;8.10;100.00
69058;BME280;56128;37.534;-122.308;2024-03-02T11:19:10;100761.47;;;8.10;100.00
69058;BME280;56128;37.534;-122.308;2024-03-02T11:21:37;100769.44;;;8.10;100.00
69058;BME280;56128;37.534;-122.308;2024-03-02T11:26:53;100775.28;;;8.03;100.00
69058;BME280;56128;37.534;-122.308;2024-03-02T11:34:45;100779.16;;;7.84;100.00
69058;BME280;56128;37.534;-122.308;2024-03-02T11:37:13;100776.31;;;7.87;100.00
69058;BME280;56128;37.534;-122.308;2024-03-02T11:39:40;100774.41;;;7.89;100.00
69058;BME280;56128;37.534;-122.308;2024-03-02T11:42:07;100765.44;;;7.90;100.00
69058;BME280;56128;37.534;-122.308;2024-03-02T11:44:36;100764.47;;;7.91;100.00
69058;BME280;56128;37.534;-122.308;2024-03-02T11:47:07;100757.66;;;7.87;100.00
69058;BME280;56128;37.534;-122.308;2024-03-02T11:49:43;100755.94;;;7.86;100.00
69058;BME280;56128;37.534;-122.308;2024-03-02T11:52:12;100760.09;;;7.90;100.00
69058;BME280;56128;37.534;-122.308;2024-03-02T11:54:41;100762.59;;;7.93;100.00
69058;BME280;56128;37.534;-122.308;2024-03-02T11:57:16;100756.97;;;7.98;100.00
69058;BME280;56128;37.534;-122.308;2024-03-02T11:59:43;100760.47;;;7.99;100.00
69058;BME280;56128;37.534;-122.308;2024-03-02T12:02:15;100776.44;;;7.99;100.00
69058;BME280;56128;37.534;-122.308;2024-03-02T12:04:43;100787.72;;;7.89;100.00
69058;BME280;56128;37.534;-122.308;2024-03-02T12:07:11;100790.78;;;7.83;100.00
69058;BME280;56128;37.534;-122.308;2024-03-02T12:09:38;100794.41;;;7.82;100.00
69058;BME280;56128;37.534;-122.308;2024-03-02T12:12:08;100798.19;;;7.78;100.00
69058;BME280;56128;37.534;-122.308;2024-03-02T12:14:38;100795.19;;;7.70;100.00
69058;BME280;56128;37.534;-122.308;2024-03-02T12:17:05;100802.78;;;7.61;100.00
69058;BME280;56128;37.534;-122.308;2024-03-02T12:19:32;100805.75;;;7.57;100.00
69058;BME280;56128;37.534;-122.308;2024-03-02T12:22:02;100793.09;;;7.46;100.00
69058;BME280;56128;37.534;-122.308;2024-03-02T12:24:29;100803.84;;;7.44;100.00
69058;BME280;56128;37.534;-122.308;2024-03-02T12:26:56;100798.81;;;7.40;100.00
69058;BME280;56128;37.534;-122.308;2024-03-02T12:29:22;100801.09;;;7.31;100.00
69058;BME280;56128;37.534;-122.308;2024-03-02T12:31:51;100798.84;;;7.25;100.00